createdAt,value
2024-02-03T00:00:45.842Z,101093.84
2024-02-03T00:03:13.003Z,101098.03
2024-02-03T00:05:41.574Z,101088.69
2024-02-03T00:08:08.698Z,101083.53
2024-02-03T00:10:35.766Z,101081.19
2024-02-03T00:13:02.698Z,101071.72
2024-02-03T00:15:30.217Z,101063.44
2024-02-03T00:17:57.546Z,101049.91
2024-02-03T00:20:24.599Z,101044.75
2024-02-03T00:22:52.934Z,101045.84
2024-02-03T00:25:20.733Z,101028.63
2024-02-03T00:27:48.937Z,101037.06
2024-02-03T00:30:16.227Z,101039.56
2024-02-03T00:32:43.390Z,101037.75
2024-02-03T00:35:12.418Z,101039.41
2024-02-03T00:37:39.459Z,101032.22
2024-02-03T00:40:07.443Z,101024.22
2024-02-03T00:42:34.474Z,101026.75
2024-02-03T00:45:01.479Z,101028.06
2024-02-03T00:47:28.586Z,101019.69
2024-02-03T00:49:55.818Z,101025.97
2024-02-03T00:52:23.210Z,101018.53
2024-02-03T00:54:50.275Z,101013.19
2024-02-03T00:57:17.258Z,101019.66
2024-02-03T00:59:44.300Z,101017.88
2024-02-03T01:02:11.272Z,101011.59
2024-02-03T01:04:38.352Z,101013.94
2024-02-03T01:07:05.355Z,101003.28
2024-02-03T01:09:32.494Z,101010.13
2024-02-03T01:12:00.128Z,101002.44
2024-02-03T01:14:27.193Z,101001.91
2024-02-03T01:16:54.209Z,101003.03
2024-02-03T01:19:21.991Z,101007.63
2024-02-03T01:21:49.094Z,101008.78
2024-02-03T01:24:16.132Z,101011.91
2024-02-03T01:26:43.125Z,101007.44
2024-02-03T01:29:10.132Z,101006.88
2024-02-03T01:31:37.743Z,100999.91
2024-02-03T01:34:04.920Z,100998.00
2024-02-03T01:36:32.551Z,100999.44
2024-02-03T01:38:59.649Z,100998.22
2024-02-03T01:41:28.417Z,101000.88
2024-02-03T01:43:55.493Z,100989.84
2024-02-03T01:46:22.953Z,100983.75
2024-02-03T01:48:50.256Z,100981.28
2024-02-03T01:51:20.155Z,100980.03
2024-02-03T01:53:48.563Z,100983.69
2024-02-03T01:56:20.195Z,100978.22
2024-02-03T01:58:47.671Z,100974.88
2024-02-03T02:01:16.555Z,100973.56
2024-02-03T02:03:45.535Z,100971.53
2024-02-03T02:06:12.838Z,100974.69
2024-02-03T02:08:40.561Z,100972.34
2024-02-03T02:11:07.720Z,100963.66
2024-02-03T02:13:34.987Z,100967.16
2024-02-03T02:16:02.434Z,100963.66
2024-02-03T02:18:29.755Z,100961.84
2024-02-03T02:20:57.162Z,100944.19
2024-02-03T02:23:24.185Z,100938.19
2024-02-03T02:25:51.234Z,100943.81
2024-02-03T02:28:18.265Z,100945.78
2024-02-03T02:30:45.412Z,100940.09
2024-02-03T02:33:13.489Z,100934.44
2024-02-03T02:35:40.643Z,100945.97
2024-02-03T02:38:07.691Z,100938.88
2024-02-03T02:40:34.882Z,100928.59
2024-02-03T02:43:02.622Z,100922.69
2024-02-03T02:45:29.628Z,100929.53
2024-02-03T02:47:56.700Z,100925.34
2024-02-03T02:50:23.870Z,100933.47
2024-02-03T02:52:50.857Z,100931.81
2024-02-03T02:55:18.096Z,100929.59
2024-02-03T02:57:45.349Z,100916.44
2024-02-03T03:00:13.193Z,100922.97
2024-02-03T03:02:40.213Z,100913.78
2024-02-03T03:05:09.432Z,100920.25
2024-02-03T03:07:38.072Z,100923.34
2024-02-03T03:10:05.318Z,100920.19
2024-02-03T03:12:32.413Z,100912.94
2024-02-03T03:14:59.409Z,100909.59
2024-02-03T03:17:26.466Z,100912.41
2024-02-03T03:19:53.565Z,100889.81
2024-02-03T03:22:20.675Z,100903.75
2024-02-03T03:24:47.704Z,100896.44
2024-02-03T03:27:14.943Z,100899.53
2024-02-03T03:29:43.342Z,100910.50
2024-02-03T03:32:10.934Z,100920.84
2024-02-03T03:34:37.945Z,100904.78
2024-02-03T03:37:05.170Z,100894.38
2024-02-03T03:39:32.083Z,100913.97
2024-02-03T03:41:59.174Z,100899.78
2024-02-03T03:44:26.210Z,100895.53
2024-02-03T03:46:53.227Z,100893.75
2024-02-03T03:49:20.251Z,100895.28
2024-02-03T03:51:47.507Z,100904.34
2024-02-03T03:54:14.542Z,100907.44
2024-02-03T03:56:41.799Z,100903.13
2024-02-03T03:59:21.478Z,100896.44
2024-02-03T04:01:50.154Z,100902.13
2024-02-03T04:04:19.004Z,100908.28
2024-02-03T04:06:46.674Z,100904.41
2024-02-03T04:09:14.972Z,100904.03
2024-02-03T04:11:42.030Z,100903.19
2024-02-03T04:14:09.495Z,100908.44
2024-02-03T04:16:36.686Z,100904.53
2024-02-03T04:19:03.959Z,100904.53
2024-02-03T04:21:32.634Z,100901.22
2024-02-03T04:23:59.682Z,100895.19
2024-02-03T04:26:26.680Z,100881.59
2024-02-03T04:28:53.521Z,100884.94
2024-02-03T04:31:20.747Z,100879.06
2024-02-03T04:33:47.776Z,100884.16
2024-02-03T04:36:14.904Z,100869.47
2024-02-03T04:38:41.980Z,100878.72
2024-02-03T04:41:08.958Z,100881.56
2024-02-03T04:43:35.908Z,100879.66
2024-02-03T04:46:02.863Z,100866.72
2024-02-03T04:48:29.955Z,100873.84
2024-02-03T04:50:57.102Z,100860.81
2024-02-03T04:53:24.043Z,100861.97
2024-02-03T04:55:51.044Z,100860.44
2024-02-03T04:58:20.190Z,100866.34
2024-02-03T05:00:47.641Z,100853.19
2024-02-03T05:03:14.615Z,100860.78
2024-02-03T05:05:41.827Z,100866.25
2024-02-03T05:08:08.871Z,100864.16
2024-02-03T05:10:35.839Z,100868.78
2024-02-03T05:13:03.073Z,100864.44
2024-02-03T05:15:30.214Z,100861.06
2024-02-03T05:17:57.235Z,100856.59
2024-02-03T05:20:24.195Z,100862.59
2024-02-03T05:22:51.233Z,100860.34
2024-02-03T05:25:18.528Z,100850.09
2024-02-03T05:27:45.502Z,100858.13
2024-02-03T05:30:13.929Z,100854.72
2024-02-03T05:32:40.906Z,100854.41
2024-02-03T05:35:08.693Z,100862.13
2024-02-03T05:37:36.218Z,100866.88
2024-02-03T05:40:05.075Z,100864.00
2024-02-03T05:42:32.189Z,100873.84
2024-02-03T05:45:00.216Z,100873.25
2024-02-03T05:47:27.557Z,100878.84
2024-02-03T05:49:54.893Z,100879.59
2024-02-03T05:52:21.842Z,100879.84
2024-02-03T05:54:49.618Z,100878.16
2024-02-03T05:57:16.657Z,100876.03
2024-02-03T05:59:50.926Z,100872.84
2024-02-03T06:02:18.844Z,100872.16
2024-02-03T06:04:45.898Z,100878.44
2024-02-03T06:07:13.373Z,100879.44
2024-02-03T06:09:40.503Z,100888.66
2024-02-03T06:12:07.802Z,100887.31
2024-02-03T06:14:35.692Z,100887.94
2024-02-03T06:17:02.726Z,100893.28
2024-02-03T06:19:29.739Z,100891.25
2024-02-03T06:21:56.862Z,100891.06
2024-02-03T06:24:23.978Z,100902.59
2024-02-03T06:26:54.478Z,100902.22
2024-02-03T06:29:21.422Z,100905.09
2024-02-03T06:31:48.416Z,100903.88
2024-02-03T06:34:15.458Z,100898.25
2024-02-03T06:36:42.610Z,100895.06
2024-02-03T06:39:09.950Z,100899.69
2024-02-03T06:41:37.041Z,100895.91
2024-02-03T06:44:04.123Z,100891.16
2024-02-03T06:46:31.081Z,100909.56
2024-02-03T06:48:58.141Z,100906.25
2024-02-03T06:51:25.250Z,100908.81
2024-02-03T06:53:52.213Z,100914.75
2024-02-03T06:56:19.163Z,100905.91
2024-02-03T06:58:47.585Z,100911.28
2024-02-03T07:01:15.387Z,100912.56
2024-02-03T07:03:42.653Z,100913.25
2024-02-03T07:06:09.856Z,100903.50
2024-02-03T07:08:37.026Z,100909.25
2024-02-03T07:11:04.271Z,100912.47
2024-02-03T07:13:32.910Z,100916.25
2024-02-03T07:16:00.101Z,100919.00
2024-02-03T07:18:27.382Z,100906.75
2024-02-03T07:20:54.402Z,100921.66
2024-02-03T07:23:21.317Z,100907.69
2024-02-03T07:25:48.492Z,100914.53
2024-02-03T07:28:15.474Z,100912.19
2024-02-03T07:30:42.546Z,100910.53
2024-02-03T07:33:11.598Z,100922.25
2024-02-03T07:35:38.712Z,100911.41
2024-02-03T07:38:07.909Z,100925.59
2024-02-03T07:40:34.864Z,100920.09
2024-02-03T07:43:01.870Z,100923.59
2024-02-03T07:45:28.899Z,100918.09
2024-02-03T07:47:56.068Z,100915.22
2024-02-03T07:50:23.996Z,100919.03
2024-02-03T07:52:51.323Z,100919.03
2024-02-03T07:55:18.614Z,100920.19
2024-02-03T07:57:48.800Z,100928.66
2024-02-03T08:00:18.442Z,100922.50
2024-02-03T08:02:45.381Z,100918.44
2024-02-03T08:05:12.524Z,100919.22
2024-02-03T08:07:39.764Z,100931.59
2024-02-03T08:10:07.473Z,100925.56
2024-02-03T08:12:34.731Z,100924.00
2024-02-03T08:15:01.793Z,100916.38
2024-02-03T08:17:28.737Z,100917.47
2024-02-03T08:19:55.833Z,100910.53
2024-02-03T08:22:23.126Z,100913.97
2024-02-03T08:24:51.031Z,100908.72
2024-02-03T08:27:18.097Z,100920.25
2024-02-03T08:29:45.129Z,100903.69
2024-02-03T08:32:12.047Z,100912.00
2024-02-03T08:34:39.210Z,100910.25
2024-02-03T08:37:06.326Z,100909.97
2024-02-03T08:42:03.423Z,100899.03
2024-02-03T08:44:30.369Z,100901.34
2024-02-03T08:46:57.475Z,100900.00
2024-02-03T08:49:24.514Z,100901.22
2024-02-03T08:51:51.621Z,100894.00
2024-02-03T08:54:18.610Z,100891.25
2024-02-03T08:56:45.657Z,100885.03
2024-02-03T08:59:13.227Z,100890.38
2024-02-03T09:01:40.248Z,100887.91
2024-02-03T09:04:09.273Z,100889.69
2024-02-03T09:06:36.576Z,100884.94
2024-02-03T09:09:06.580Z,100889.50
2024-02-03T09:11:33.806Z,100893.19
2024-02-03T09:14:03.127Z,100898.97
2024-02-03T09:16:30.329Z,100905.94
2024-02-03T09:18:57.458Z,100916.09
2024-02-03T09:21:24.902Z,100919.97
2024-02-03T09:23:51.893Z,100912.72
2024-02-03T09:26:18.955Z,100916.72
2024-02-03T09:28:45.941Z,100922.97
2024-02-03T09:31:20.144Z,100912.06
2024-02-03T09:33:48.046Z,100916.47
2024-02-03T09:36:17.880Z,100918.88
2024-02-03T09:38:45.033Z,100927.41
2024-02-03T09:41:12.265Z,100936.41
2024-02-03T09:43:39.442Z,100928.66
2024-02-03T09:46:07.011Z,100926.56
2024-02-03T09:48:34.254Z,100923.97
2024-02-03T09:51:02.392Z,100927.09
2024-02-03T09:53:30.610Z,100935.09
2024-02-03T09:56:00.395Z,100930.06
2024-02-03T09:58:27.432Z,100932.22
2024-02-03T10:00:54.665Z,100932.44
2024-02-03T10:03:22.357Z,100932.84
2024-02-03T10:06:03.255Z,100932.00
2024-02-03T10:08:31.417Z,100922.69
2024-02-03T10:10:58.614Z,100921.56
2024-02-03T10:13:25.812Z,100921.88
2024-02-03T10:16:04.299Z,100909.63
2024-02-03T10:18:36.325Z,100908.38
2024-02-03T10:21:04.520Z,100905.59
2024-02-03T10:23:31.765Z,100908.78
2024-02-03T10:26:00.232Z,100904.25
2024-02-03T10:28:27.964Z,100897.00
2024-02-03T10:31:01.968Z,100898.22
2024-02-03T10:33:29.515Z,100893.72
2024-02-03T10:35:57.349Z,100892.66
2024-02-03T10:38:24.345Z,100890.63
2024-02-03T10:40:52.932Z,100878.19
2024-02-03T10:43:22.254Z,100885.94
2024-02-03T10:45:55.068Z,100881.41
2024-02-03T10:48:27.441Z,100872.69
2024-02-03T10:50:59.303Z,100875.59
2024-02-03T10:53:49.323Z,100874.78
2024-02-03T10:56:17.130Z,100868.16
2024-02-03T10:58:44.273Z,100872.50
2024-02-03T11:01:19.325Z,100871.91
2024-02-03T11:03:50.591Z,100878.72
2024-02-03T11:06:31.889Z,100881.63
2024-02-03T11:09:20.983Z,100883.72
2024-02-03T11:11:49.931Z,100880.00
2024-02-03T11:14:32.499Z,100867.50
2024-02-03T11:17:03.537Z,100867.53
2024-02-03T11:19:33.517Z,100865.66
2024-02-03T11:22:02.421Z,100867.31
2024-02-03T11:24:30.808Z,100864.63
2024-02-03T11:27:08.739Z,100864.00
2024-02-03T11:29:37.513Z,100856.94
2024-02-03T11:32:06.668Z,100854.41
2024-02-03T11:34:35.928Z,100857.94
2024-02-03T11:37:04.088Z,100851.25
2024-02-03T11:39:36.221Z,100849.78
2024-02-03T11:42:04.526Z,100852.72
2024-02-03T11:44:50.520Z,100850.66
2024-02-03T11:47:21.083Z,100845.06
2024-02-03T11:49:48.538Z,100844.81
2024-02-03T11:52:19.048Z,100843.16
2024-02-03T11:54:46.991Z,100839.47
2024-02-03T11:57:16.311Z,100837.00
2024-02-03T11:59:43.819Z,100826.38
2024-02-03T12:02:12.706Z,100826.97
2024-02-03T12:04:39.882Z,100829.25
2024-02-03T12:07:07.234Z,100824.06
2024-02-03T12:09:34.971Z,100823.22
2024-02-03T12:12:01.951Z,100814.97
2024-02-03T12:14:30.877Z,100817.66
2024-02-03T12:16:59.067Z,100809.16
2024-02-03T12:19:27.928Z,100812.91
2024-02-03T12:21:56.699Z,100813.53
2024-02-03T12:24:23.925Z,100808.56
2024-02-03T12:26:51.094Z,100802.34
2024-02-03T12:29:18.645Z,100801.28
2024-02-03T12:31:45.579Z,100812.09
2024-02-03T12:34:12.892Z,100807.94
2024-02-03T12:36:40.107Z,100804.59
2024-02-03T12:39:07.334Z,100801.66
2024-02-03T12:41:34.507Z,100787.56
2024-02-03T12:44:01.658Z,100799.41
2024-02-03T12:46:28.859Z,100790.03
2024-02-03T12:48:56.361Z,100795.25
2024-02-03T12:51:23.706Z,100790.66
2024-02-03T12:53:51.717Z,100784.84
2024-02-03T12:56:19.570Z,100787.09
2024-02-03T12:58:48.607Z,100776.72
2024-02-03T13:01:15.645Z,100775.88
2024-02-03T13:03:42.755Z,100783.59
2024-02-03T13:06:10.409Z,100779.25
2024-02-03T13:08:37.437Z,100776.59
2024-02-03T13:11:06.038Z,100780.75
2024-02-03T13:13:32.971Z,100777.19
2024-02-03T13:16:00.028Z,100759.09
2024-02-03T13:18:27.370Z,100768.06
2024-02-03T13:20:54.432Z,100767.22
2024-02-03T13:23:21.368Z,100778.06
2024-02-03T13:25:49.095Z,100777.84
2024-02-03T13:28:16.129Z,100777.47
2024-02-03T13:30:43.079Z,100778.91
2024-02-03T13:33:11.639Z,100771.44
2024-02-03T13:35:38.962Z,100773.94
2024-02-03T13:38:06.081Z,100773.50
2024-02-03T13:40:33.877Z,100780.56
2024-02-03T13:43:02.449Z,100767.69
2024-02-03T13:45:32.536Z,100771.44
2024-02-03T13:47:59.890Z,100773.94
2024-02-03T13:50:26.933Z,100775.81
2024-02-03T13:52:57.196Z,100774.56
2024-02-03T13:55:24.982Z,100783.28
2024-02-03T13:57:52.260Z,100774.75
2024-02-03T14:00:19.522Z,100773.53
2024-02-03T14:02:46.593Z,100773.94
2024-02-03T14:05:14.140Z,100768.53
2024-02-03T14:07:41.158Z,100776.44
2024-02-03T14:10:08.522Z,100759.44
2024-02-03T14:12:35.535Z,100776.03
2024-02-03T14:15:03.013Z,100770.22
2024-02-03T14:17:30.751Z,100764.19
2024-02-03T14:19:57.934Z,100769.19
2024-02-03T14:22:25.009Z,100771.25
2024-02-03T14:24:52.039Z,100774.59
2024-02-03T14:27:19.092Z,100771.47
2024-02-03T14:29:46.147Z,100774.38
2024-02-03T14:32:15.969Z,100770.66
2024-02-03T14:34:46.476Z,100776.25
2024-02-03T14:37:13.699Z,100766.91
2024-02-03T14:39:40.619Z,100767.34
2024-02-03T14:42:10.865Z,100766.06
2024-02-03T14:44:38.861Z,100772.06
2024-02-03T14:47:06.314Z,100772.47
2024-02-03T14:49:33.432Z,100771.00
2024-02-03T14:52:00.590Z,100763.53
2024-02-03T14:54:27.823Z,100763.53
2024-02-03T14:56:56.795Z,100761.69
2024-02-03T14:59:25.175Z,100769.13
2024-02-03T15:01:52.167Z,100762.03
2024-02-03T15:04:19.442Z,100759.97
2024-02-03T15:06:46.970Z,100762.25
2024-02-03T15:09:14.084Z,100764.31
2024-02-03T15:11:41.262Z,100754.34
2024-02-03T15:14:08.659Z,100754.75
2024-02-03T15:16:35.531Z,100760.50
2024-02-03T15:19:02.738Z,100757.19
2024-02-03T15:21:33.324Z,100763.53
2024-02-03T15:24:00.514Z,100760.84
2024-02-03T15:26:27.484Z,100759.78
2024-02-03T15:28:54.837Z,100761.47
2024-02-03T15:31:22.077Z,100768.69
2024-02-03T15:33:49.455Z,100760.19
2024-02-03T15:36:17.475Z,100752.31
2024-02-03T15:38:44.674Z,100766.94
2024-02-03T15:41:11.840Z,100766.41
2024-02-03T15:43:40.721Z,100769.91
2024-02-03T15:46:08.375Z,100768.88
2024-02-03T15:48:35.662Z,100765.66
2024-02-03T15:51:02.693Z,100765.06
2024-02-03T15:53:29.698Z,100765.41
2024-02-03T15:55:57.064Z,100769.97
2024-02-03T15:58:26.294Z,100765.31
2024-02-03T16:01:00.091Z,100766.53
2024-02-03T16:03:27.447Z,100767.75
2024-02-03T16:05:54.672Z,100775.44
2024-02-03T16:08:23.115Z,100766.94
2024-02-03T16:10:50.571Z,100768.16
2024-02-03T16:13:17.882Z,100776.63
2024-02-03T16:15:47.371Z,100767.78
2024-02-03T16:18:16.065Z,100780.34
2024-02-03T16:20:43.591Z,100783.09
2024-02-03T16:23:13.724Z,100787.81
2024-02-03T16:25:40.913Z,100787.72
2024-02-03T16:28:08.679Z,100792.47
2024-02-03T16:30:36.225Z,100789.25
2024-02-03T16:33:03.548Z,100789.81
2024-02-03T16:35:30.826Z,100796.16
2024-02-03T16:37:58.829Z,100796.16
2024-02-03T16:40:25.886Z,100796.63
2024-02-03T16:42:52.825Z,100804.53
2024-02-03T16:45:19.894Z,100799.47
2024-02-03T16:47:47.197Z,100806.59
2024-02-03T16:50:14.268Z,100797.13
2024-02-03T16:52:41.228Z,100804.16
2024-02-03T16:55:08.738Z,100800.38
2024-02-03T16:57:37.618Z,100805.56
2024-02-03T17:00:07.796Z,100802.03
2024-02-03T17:02:35.082Z,100806.16
2024-02-03T17:05:02.254Z,100807.28
2024-02-03T17:07:30.046Z,100803.63
2024-02-03T17:09:57.392Z,100804.69
2024-02-03T17:12:24.910Z,100803.84
2024-02-03T17:14:52.015Z,100801.69
2024-02-03T17:17:19.101Z,100800.94
2024-02-03T17:19:48.953Z,100806.28
2024-02-03T17:22:16.128Z,100800.56
2024-02-03T17:25:03.489Z,100801.84
2024-02-03T17:27:31.096Z,100795.03
2024-02-03T17:29:58.084Z,100788.59
2024-02-03T17:32:26.524Z,100793.75
2024-02-03T17:34:53.935Z,100797.25
2024-02-03T17:37:21.161Z,100804.78
2024-02-03T17:39:48.388Z,100804.22
2024-02-03T17:42:15.466Z,100801.63
2024-02-03T17:44:45.646Z,100801.84
2024-02-03T17:47:13.540Z,100802.84
2024-02-03T17:49:40.782Z,100812.75
2024-02-03T17:52:14.945Z,100810.81
2024-02-03T17:54:42.432Z,100816.44
2024-02-03T17:57:10.025Z,100821.16
2024-02-03T17:59:38.966Z,100827.34
2024-02-03T18:02:12.525Z,100828.56
2024-02-03T18:04:39.717Z,100828.38
2024-02-03T18:07:07.058Z,100824.22
2024-02-03T18:09:34.174Z,100838.63
2024-02-03T18:12:01.369Z,100824.00
2024-02-03T18:14:28.386Z,100824.94
2024-02-03T18:16:55.367Z,100825.16
2024-02-03T18:19:22.465Z,100814.41
2024-02-03T18:21:52.182Z,100818.56
2024-02-03T18:24:19.589Z,100827.44
2024-02-03T18:26:46.509Z,100825.03
2024-02-03T18:29:13.845Z,100833.19
2024-02-03T18:31:40.966Z,100829.97
2024-02-03T18:34:08.474Z,100836.78
2024-02-03T18:36:35.892Z,100835.03
2024-02-03T18:39:03.165Z,100837.69
2024-02-03T18:41:30.935Z,100834.34
2024-02-03T18:43:58.683Z,100838.16
2024-02-03T18:46:28.349Z,100836.06
2024-02-03T18:48:58.195Z,100839.38
2024-02-03T18:51:25.855Z,100837.13
2024-02-03T18:53:52.946Z,100841.59
2024-02-03T18:56:24.209Z,100840.97
2024-02-03T18:58:51.959Z,100845.97
2024-02-03T19:01:19.654Z,100854.31
2024-02-03T19:03:49.413Z,100842.56
2024-02-03T19:06:17.093Z,100837.81
2024-02-03T19:08:44.117Z,100847.00
2024-02-03T19:11:11.173Z,100840.22
2024-02-03T19:13:38.303Z,100849.16
2024-02-03T19:16:06.200Z,100849.50
2024-02-03T19:18:33.287Z,100849.22
2024-02-03T19:21:00.509Z,100855.75
2024-02-03T19:23:28.255Z,100853.13
2024-02-03T19:25:56.655Z,100860.50
2024-02-03T19:28:23.589Z,100856.31
2024-02-03T19:30:50.750Z,100855.69
2024-02-03T19:33:22.240Z,100864.53
2024-02-03T19:35:51.412Z,100873.75
2024-02-03T19:38:19.587Z,100880.25
2024-02-03T19:40:50.272Z,100879.13
2024-02-03T19:43:18.693Z,100880.97
2024-02-03T19:45:45.812Z,100882.47
2024-02-03T19:48:13.129Z,100874.28
2024-02-03T19:50:40.410Z,100872.16
2024-02-03T19:53:07.953Z,100874.84
2024-02-03T19:55:35.176Z,100889.09
2024-02-03T19:58:02.365Z,100882.69
2024-02-03T20:00:29.615Z,100881.28
2024-02-03T20:02:56.678Z,100896.31
2024-02-03T20:05:23.726Z,100896.53
2024-02-03T20:07:50.921Z,100896.84
2024-02-03T20:10:19.402Z,100899.97
2024-02-03T20:12:46.655Z,100910.38
2024-02-03T20:15:13.869Z,100919.94
2024-02-03T20:17:42.051Z,100920.56
2024-02-03T20:20:09.546Z,100910.16
2024-02-03T20:22:37.280Z,100920.56
2024-02-03T20:25:04.784Z,100915.88
2024-02-03T20:27:31.974Z,100913.72
2024-02-03T20:29:58.950Z,100910.50
2024-02-03T20:32:26.129Z,100915.44
2024-02-03T20:34:53.202Z,100911.50
2024-02-03T20:37:20.317Z,100909.41
2024-02-03T20:39:47.260Z,100907.06
2024-02-03T20:42:16.751Z,100911.47
2024-02-03T20:44:46.687Z,100918.56
2024-02-03T20:47:13.945Z,100914.94
2024-02-03T20:49:41.141Z,100910.06
2024-02-03T20:52:08.461Z,100914.63
2024-02-03T20:54:38.800Z,100902.59
2024-02-03T20:57:06.043Z,100919.31
2024-02-03T20:59:33.184Z,100919.66
2024-02-03T21:02:01.788Z,100911.00
2024-02-03T21:04:29.099Z,100910.66
2024-02-03T21:06:56.498Z,100911.47
2024-02-03T21:09:23.950Z,100911.50
2024-02-03T21:11:51.090Z,100895.81
2024-02-03T21:14:18.330Z,100893.31
2024-02-03T21:16:45.340Z,100888.97
2024-02-03T21:19:12.566Z,100881.31
2024-02-03T21:21:42.970Z,100878.13
2024-02-03T21:24:10.139Z,100881.81
2024-02-03T21:26:37.160Z,100885.47
2024-02-03T21:29:04.786Z,100891.16
2024-02-03T21:31:31.812Z,100881.13
2024-02-03T21:33:59.663Z,100887.47
2024-02-03T21:36:26.846Z,100885.13
2024-02-03T21:38:53.872Z,100879.75
2024-02-03T21:41:20.869Z,100881.59
2024-02-03T21:43:53.353Z,100884.59
2024-02-03T21:46:20.851Z,100889.38
2024-02-03T21:48:49.919Z,100886.59
2024-02-03T21:51:18.052Z,100892.47
2024-02-03T21:53:45.405Z,100891.81
2024-02-03T21:56:16.695Z,100889.84
2024-02-03T21:58:44.481Z,100889.66
2024-02-03T22:01:12.280Z,100893.34
2024-02-03T22:03:40.928Z,100884.97
2024-02-03T22:06:08.529Z,100894.31
2024-02-03T22:08:36.064Z,100898.50
2024-02-03T22:11:03.076Z,100896.34
2024-02-03T22:13:30.229Z,100899.00
2024-02-03T22:15:57.211Z,100905.19
2024-02-03T22:18:24.414Z,100893.19
2024-02-03T22:20:51.612Z,100894.16
2024-02-03T22:23:18.688Z,100892.59
2024-02-03T22:25:45.676Z,100884.75
2024-02-03T22:28:12.874Z,100883.78
2024-02-03T22:30:39.862Z,100890.25
2024-02-03T22:33:07.134Z,100889.09
2024-02-03T22:35:34.215Z,100881.25
2024-02-03T22:38:01.318Z,100886.31
2024-02-03T22:40:28.339Z,100891.63
2024-02-03T22:42:55.433Z,100893.59
2024-02-03T22:45:22.463Z,100883.56
2024-02-03T22:47:49.652Z,100891.13
2024-02-03T22:50:16.960Z,100881.63
2024-02-03T22:52:44.368Z,100878.22
2024-02-03T22:55:11.631Z,100877.38
2024-02-03T22:57:39.315Z,100870.22
2024-02-03T23:00:28.971Z,100867.38
2024-02-03T23:02:57.824Z,100864.03
2024-02-03T23:05:28.123Z,100860.41
2024-02-03T23:07:58.107Z,100862.28
2024-02-03T23:10:39.364Z,100861.22
2024-02-03T23:13:24.130Z,100862.75
2024-02-03T23:15:52.854Z,100862.41
2024-02-03T23:18:20.042Z,100859.34
2024-02-03T23:21:12.784Z,100873.88
2024-02-03T23:23:40.084Z,100866.81
2024-02-03T23:26:07.232Z,100864.97
2024-02-03T23:28:35.264Z,100868.53
2024-02-03T23:31:03.543Z,100870.22
2024-02-03T23:33:31.242Z,100853.84
2024-02-03T23:35:58.382Z,100862.91
2024-02-03T23:38:25.887Z,100871.75
2024-02-03T23:40:52.879Z,100868.88
2024-02-03T23:43:20.684Z,100866.22
2024-02-03T23:45:48.222Z,100873.94
2024-02-03T23:48:15.445Z,100881.13
2024-02-03T23:50:42.443Z,100874.59
2024-02-03T23:53:09.466Z,100863.03
2024-02-03T23:55:36.707Z,100863.91
2024-02-03T23:58:03.973Z,100863.25
